Columbine, New Mexico
Current Conditions -  °F | °C
As of 1:35 PM on Monday 24 Nov 2014 (Local Time) from KSKX Reporting Station
Broken Clouds Broken Clouds  
Wind Chill: 30°   Ceiling: 9000
Heat Index: 30°   Visibility: 10mi
Dew Point: 10°   Wind: 3mph
Humidity: 44%   Direction: 120°ESE
Pressure: 30.06"   Gusts: NA
Location:  36.7571°N, 105.477°W
Report Text: KSKX 242035Z AUTO 12003KT 10SM BKN090 M01/M12 A3006 RMK AO1
Loading
Personal Weather Stations






























Interactive Weather Map New forecast layout! Learn more

10-Day Weather Forecast

Advertisements
Track Severe Weather on mobile